createdAt,value
2023-04-21T00:00:18.327Z,6.58
2023-04-21T00:05:22.495Z,5.81
2023-04-21T00:10:25.910Z,6.06
2023-04-21T00:15:29.650Z,6.22
2023-04-21T00:20:33.768Z,6.09
2023-04-21T00:25:38.225Z,6.07
2023-04-21T00:30:42.093Z,6.06
2023-04-21T00:35:45.302Z,5.97
2023-04-21T00:40:49.142Z,5.98
2023-04-21T00:45:52.607Z,6.38
2023-04-21T00:50:56.944Z,5.78
2023-04-21T00:56:00.142Z,5.66
2023-04-21T01:01:05.713Z,5.56
2023-04-21T01:06:10.221Z,5.73
2023-04-21T01:11:14.994Z,5.78
2023-04-21T01:16:19.063Z,5.93
2023-04-21T01:21:23.915Z,6.05
2023-04-21T01:26:27.496Z,5.97
2023-04-21T01:31:31.492Z,6.59
2023-04-21T01:36:37.719Z,6.51
2023-04-21T01:41:41.869Z,6.50
2023-04-21T01:46:45.892Z,5.97
2023-04-21T01:51:49.557Z,6.26
2023-04-21T01:56:53.918Z,6.28
2023-04-21T02:01:58.272Z,6.41
2023-04-21T02:07:02.530Z,6.61
2023-04-21T02:12:06.417Z,6.56
2023-04-21T02:17:10.685Z,6.33
2023-04-21T02:22:14.428Z,6.28
2023-04-21T02:27:17.802Z,6.11
2023-04-21T02:32:25.960Z,6.26
2023-04-21T02:37:30.058Z,6.13
2023-04-21T02:42:35.123Z,6.23
2023-04-21T02:47:38.403Z,6.06
2023-04-21T02:52:41.642Z,5.89
2023-04-21T02:57:45.371Z,5.99
2023-04-21T03:02:49.348Z,5.50
2023-04-21T03:07:53.593Z,5.37
2023-04-21T03:12:57.657Z,5.65
2023-04-21T03:18:01.955Z,5.68
2023-04-21T03:23:05.476Z,5.47
2023-04-21T03:28:10.521Z,5.52
2023-04-21T03:33:13.676Z,5.23
2023-04-21T03:38:17.763Z,5.47
2023-04-21T03:43:22.128Z,4.97
2023-04-21T03:48:26.135Z,5.41
2023-04-21T03:53:29.698Z,5.10
2023-04-21T03:58:33.269Z,5.66
2023-04-21T04:03:36.988Z,5.60
2023-04-21T04:08:41.234Z,5.39
2023-04-21T04:13:44.962Z,5.05
2023-04-21T04:18:51.458Z,5.66
2023-04-21T04:23:55.264Z,5.45
2023-04-21T04:29:05.468Z,5.37
2023-04-21T04:34:09.918Z,5.83
2023-04-21T04:39:14.763Z,6.43
2023-04-21T04:44:19.248Z,6.40
2023-04-21T04:49:24.182Z,7.03
2023-04-21T04:54:29.504Z,6.89
2023-04-21T04:59:33.245Z,7.17
2023-04-21T05:04:37.401Z,7.68
2023-04-21T05:09:40.672Z,7.34
2023-04-21T05:14:44.622Z,7.63
2023-04-21T05:19:48.108Z,7.72
2023-04-21T05:24:51.728Z,8.01
2023-04-21T05:29:57.093Z,8.36
2023-04-21T05:35:00.614Z,8.67
2023-04-21T05:40:04.051Z,8.92
2023-04-21T05:45:08.617Z,9.49
2023-04-21T05:50:12.869Z,9.86
2023-04-21T05:55:16.621Z,9.72
2023-04-21T06:00:20.237Z,10.02
2023-04-21T06:05:23.936Z,10.47
2023-04-21T06:10:27.667Z,10.33
2023-04-21T06:15:30.841Z,10.70
2023-04-21T06:20:34.081Z,11.65
2023-04-21T06:25:37.211Z,13.53
2023-04-21T06:30:41.159Z,14.50
2023-04-21T06:35:44.795Z,16.14
2023-04-21T06:40:48.369Z,16.38
2023-04-21T06:45:52.278Z,15.90
2023-04-21T06:50:56.369Z,16.72
2023-04-21T06:56:00.319Z,18.44
2023-04-21T07:01:04.053Z,17.48
2023-04-21T07:06:07.890Z,16.96
2023-04-21T07:11:12.157Z,18.59
2023-04-21T07:16:15.576Z,19.00
2023-04-21T07:21:19.070Z,19.93
2023-04-21T07:26:23.099Z,20.09
2023-04-21T07:31:26.789Z,19.41
2023-04-21T07:36:31.325Z,18.90
2023-04-21T07:41:36.190Z,19.43
2023-04-21T07:46:40.470Z,19.32
2023-04-21T07:51:44.361Z,19.59
2023-04-21T07:56:47.977Z,19.51
2023-04-21T08:01:52.044Z,20.19
2023-04-21T08:06:56.432Z,20.75
2023-04-21T08:12:00.161Z,20.17
2023-04-21T08:17:03.691Z,20.38
2023-04-21T08:22:07.458Z,21.05
2023-04-21T08:27:10.662Z,20.64
2023-04-21T08:32:14.354Z,20.68
2023-04-21T08:37:19.234Z,19.66
2023-04-21T08:42:22.803Z,19.72
2023-04-21T08:47:26.581Z,20.06
2023-04-21T08:52:29.793Z,19.92
2023-04-21T08:57:33.866Z,19.72
2023-04-21T09:03:01.281Z,19.23
2023-04-21T09:08:19.446Z,19.20
2023-04-21T09:13:31.221Z,18.97
2023-04-21T09:18:41.639Z,18.39
2023-04-21T09:23:47.275Z,19.33
2023-04-21T09:28:53.345Z,19.65
2023-04-21T09:34:01.023Z,18.07
2023-04-21T09:44:14.254Z,18.06
2023-04-21T09:49:18.763Z,18.53
2023-04-21T09:54:30.471Z,18.51
2023-04-21T09:59:39.130Z,19.52
2023-04-21T10:04:44.059Z,19.17
2023-04-21T10:09:54.832Z,20.04
2023-04-21T10:14:58.947Z,20.01
2023-04-21T10:20:02.324Z,18.99
2023-04-21T10:25:10.397Z,20.03
2023-04-21T10:30:21.177Z,20.30
2023-04-21T10:35:24.880Z,20.44
2023-04-21T10:40:42.964Z,20.27
2023-04-21T10:45:47.720Z,20.94
2023-04-21T10:50:51.347Z,20.97
2023-04-21T10:55:55.086Z,21.08
2023-04-21T11:00:59.462Z,21.21
2023-04-21T11:06:15.146Z,21.78
2023-04-21T11:11:24.508Z,19.25
2023-04-21T11:16:28.200Z,18.42
2023-04-21T11:21:33.380Z,18.64
2023-04-21T11:26:42.890Z,18.86
2023-04-21T11:31:49.223Z,19.22
2023-04-21T11:36:54.024Z,21.18
2023-04-21T11:41:58.058Z,21.10
2023-04-21T11:47:12.342Z,20.65
2023-04-21T11:52:34.586Z,20.66
2023-04-21T11:57:53.384Z,21.80
2023-04-21T12:03:08.862Z,22.41
2023-04-21T12:08:34.962Z,21.29
2023-04-21T12:13:41.098Z,21.98
2023-04-21T12:18:44.663Z,20.90
2023-04-21T12:23:48.809Z,21.61
2023-04-21T12:34:31.113Z,21.57
2023-04-21T12:39:34.864Z,21.65
2023-04-21T12:44:40.279Z,20.95
2023-04-21T12:49:44.492Z,21.45
2023-04-21T12:54:47.579Z,20.70
2023-04-21T12:59:51.420Z,21.17
2023-04-21T13:04:54.633Z,22.61
2023-04-21T13:09:58.700Z,22.02
2023-04-21T13:15:02.444Z,20.69
2023-04-21T13:20:07.535Z,20.90
2023-04-21T13:25:10.864Z,21.54
2023-04-21T13:30:16.134Z,21.67
2023-04-21T13:35:19.323Z,21.72
2023-04-21T13:40:23.002Z,21.52
2023-04-21T13:45:26.986Z,21.34
2023-04-21T13:50:30.686Z,20.92
2023-04-21T13:55:34.319Z,21.47
2023-04-21T14:00:39.061Z,21.01
2023-04-21T14:05:43.053Z,21.48
2023-04-21T14:10:47.402Z,20.48
2023-04-21T14:15:51.450Z,20.66
2023-04-21T14:20:55.109Z,20.94
2023-04-21T14:25:59.140Z,20.92
2023-04-21T14:31:04.474Z,20.30
2023-04-21T14:36:08.527Z,20.33
2023-04-21T14:41:12.798Z,20.30
2023-04-21T14:46:16.176Z,19.56
2023-04-21T14:51:20.488Z,19.54
2023-04-21T14:56:24.508Z,20.12
2023-04-21T15:01:28.053Z,19.73
2023-04-21T15:06:31.904Z,19.24
2023-04-21T15:11:35.662Z,18.98
2023-04-21T15:16:39.351Z,18.63
2023-04-21T15:21:43.441Z,18.02
2023-04-21T15:26:47.411Z,17.91
2023-04-21T15:31:51.108Z,17.45
2023-04-21T15:36:54.908Z,17.19
2023-04-21T15:41:59.441Z,17.44
2023-04-21T15:47:02.736Z,17.01
2023-04-21T15:52:07.302Z,16.58
2023-04-21T15:57:11.528Z,16.45
2023-04-21T16:02:16.018Z,16.23
2023-04-21T16:07:20.313Z,15.65
2023-04-21T16:12:23.981Z,14.87
2023-04-21T16:17:28.216Z,14.37
2023-04-21T16:22:32.650Z,13.80
2023-04-21T16:27:35.765Z,13.46
2023-04-21T16:32:39.654Z,13.49
2023-04-21T16:37:44.596Z,12.75
2023-04-21T16:42:49.198Z,12.56
2023-04-21T16:47:53.396Z,12.17
2023-04-21T16:52:57.396Z,12.12
2023-04-21T16:58:01.456Z,11.74
2023-04-21T17:03:05.294Z,11.60
2023-04-21T17:08:09.528Z,11.23
2023-04-21T17:13:13.021Z,11.25
2023-04-21T17:18:17.169Z,10.99
2023-04-21T17:23:20.604Z,10.60
2023-04-21T17:28:32.473Z,10.75
2023-04-21T17:33:36.537Z,10.42
2023-04-21T17:38:42.062Z,10.28
2023-04-21T17:43:46.025Z,10.34
2023-04-21T17:48:50.101Z,9.66
2023-04-21T17:53:54.660Z,10.02
2023-04-21T17:58:57.936Z,9.24
2023-04-21T18:04:02.068Z,9.20
2023-04-21T18:09:05.965Z,8.95
2023-04-21T18:14:09.659Z,8.93
2023-04-21T18:19:13.608Z,8.47
2023-04-21T18:24:17.226Z,8.71
2023-04-21T18:29:20.510Z,8.81
2023-04-21T18:34:24.289Z,8.55
2023-04-21T18:39:27.801Z,8.28
2023-04-21T18:44:32.160Z,8.22
2023-04-21T18:49:35.831Z,8.04
2023-04-21T18:54:40.171Z,8.06
2023-04-21T18:59:43.808Z,7.94
2023-04-21T19:04:48.039Z,8.13
2023-04-21T19:09:52.390Z,8.12
2023-04-21T19:14:56.669Z,7.75
2023-04-21T19:20:00.961Z,7.70
2023-04-21T19:25:06.413Z,7.71
2023-04-21T19:30:10.109Z,7.94
2023-04-21T19:35:13.756Z,7.73
2023-04-21T19:40:17.862Z,7.66
2023-04-21T19:45:21.387Z,7.14
2023-04-21T19:50:25.473Z,7.47
2023-04-21T19:55:29.196Z,7.56
2023-04-21T20:00:32.890Z,7.26
2023-04-21T20:05:36.496Z,7.47
2023-04-21T20:10:45.491Z,6.87
2023-04-21T20:15:49.638Z,6.98
2023-04-21T20:20:53.177Z,7.02
2023-04-21T20:25:58.273Z,7.10
2023-04-21T20:31:02.009Z,6.94
2023-04-21T20:36:07.624Z,6.94
2023-04-21T20:41:11.192Z,6.87
2023-04-21T20:46:16.002Z,6.95
2023-04-21T20:51:19.683Z,7.00
2023-04-21T20:56:22.962Z,6.57
2023-04-21T21:01:28.675Z,6.51
2023-04-21T21:06:33.977Z,6.64
2023-04-21T21:11:37.582Z,6.65
2023-04-21T21:16:40.971Z,6.50
2023-04-21T21:21:44.975Z,6.32
2023-04-21T21:26:48.455Z,6.53
2023-04-21T21:31:52.054Z,6.02
2023-04-21T21:36:55.895Z,6.07
2023-04-21T21:41:59.515Z,6.02
2023-04-21T21:47:03.704Z,6.44
2023-04-21T21:52:06.967Z,6.10
2023-04-21T21:57:10.240Z,5.47
2023-04-21T22:02:13.867Z,6.13
2023-04-21T22:07:17.916Z,5.77
2023-04-21T22:12:21.925Z,5.87
2023-04-21T22:17:26.106Z,5.88
2023-04-21T22:22:29.393Z,6.23
2023-04-21T22:27:34.074Z,5.76
2023-04-21T22:32:37.953Z,6.34
2023-04-21T22:37:42.663Z,6.22
2023-04-21T22:42:46.828Z,5.97
2023-04-21T22:47:51.416Z,5.69
2023-04-21T22:52:55.415Z,5.56
2023-04-21T22:57:59.116Z,5.64
2023-04-21T23:03:03.255Z,5.67
2023-04-21T23:08:07.392Z,5.51
2023-04-21T23:13:11.155Z,5.61
2023-04-21T23:18:14.737Z,5.75
2023-04-21T23:23:18.842Z,6.04
2023-04-21T23:28:22.269Z,5.75
2023-04-21T23:33:25.892Z,5.88
2023-04-21T23:38:29.284Z,5.91
2023-04-21T23:43:34.857Z,5.51
2023-04-21T23:48:38.400Z,5.85
2023-04-21T23:53:42.574Z,5.38
2023-04-21T23:58:46.124Z,5.13
